Time;durP1;ratioP1;P1;durP2;ratioP2;P2;SDS_P1;SDS_P2;PMS_P1;PMS_P2;Temp;Humidity;BMP_temperature;BMP_pressure;BME280_temperature;BME280_humidity;BME280_pressure;Samples;Min_cycle;Max_cycle;Signal;HPM_P1;HPM_P2
2022/06/30 00:00:41;;;;;;;4.38;3.97;;;;;;;22.88;50.76;94897.56;4961697;28;20740;-69
2022/06/30 00:03:07;;;;;;;5.88;4.65;;;;;;;23.01;50.93;94893.88;4964492;28;20701;-69
2022/06/30 00:05:32;;;;;;;9.15;5.40;;;;;;;22.93;50.80;94895.00;4979437;28;20285;-68
2022/06/30 00:07:58;;;;;;;7.55;4.75;;;;;;;22.68;51.29;94887.97;4970969;28;20215;-68
2022/06/30 00:10:23;;;;;;;6.47;4.63;;;;;;;22.43;52.23;94898.88;4971663;28;20975;-69
2022/06/30 00:12:49;;;;;;;6.32;5.57;;;;;;;22.50;52.04;94892.59;4963741;28;20228;-69
2022/06/30 00:15:14;;;;;;;11.63;5.60;;;;;;;22.57;52.25;94890.63;4967816;28;20311;-68
2022/06/30 00:17:40;;;;;;;8.85;5.47;;;;;;;22.60;52.01;94903.56;4961764;28;20731;-69
2022/06/30 00:20:06;;;;;;;6.47;5.22;;;;;;;22.57;52.10;94904.84;4969488;28;20228;-69
2022/06/30 00:22:31;;;;;;;7.43;5.68;;;;;;;22.46;52.41;94903.78;4962461;28;20299;-69
2022/06/30 00:24:57;;;;;;;5.90;5.40;;;;;;;22.29;53.49;94901.94;4969330;28;20242;-69
2022/06/30 00:27:22;;;;;;;8.95;6.03;;;;;;;22.38;53.50;94896.06;4967837;28;20228;-69
2022/06/30 00:29:48;;;;;;;6.35;5.72;;;;;;;22.35;53.90;94890.34;4970559;28;20212;-68
2022/06/30 00:32:13;;;;;;;7.00;5.72;;;;;;;22.35;53.75;94896.53;4968180;28;20705;-68
2022/06/30 00:34:38;;;;;;;7.20;6.30;;;;;;;22.27;54.21;94894.16;4959052;28;20216;-68
2022/06/30 00:37:04;;;;;;;7.53;6.15;;;;;;;22.33;53.92;94893.25;4961143;28;20235;-68
2022/06/30 00:39:30;;;;;;;7.05;5.95;;;;;;;22.23;54.33;94893.78;4969876;28;20223;-68
2022/06/30 00:41:55;;;;;;;6.43;5.70;;;;;;;21.98;55.34;94888.53;4954334;28;20237;-68
2022/06/30 00:44:22;;;;;;;8.45;5.90;;;;;;;22.01;55.39;94893.44;4960441;28;20229;-68
2022/06/30 00:46:48;;;;;;;10.32;6.95;;;;;;;21.94;55.90;94897.22;4972014;28;20215;-70
2022/06/30 00:49:16;;;;;;;9.90;6.45;;;;;;;21.98;55.71;94893.88;4961773;28;20583;-68
2022/06/30 00:51:42;;;;;;;7.82;6.40;;;;;;;21.90;55.90;94890.72;4978521;28;20330;-68
2022/06/30 00:54:07;;;;;;;8.95;6.65;;;;;;;21.79;56.37;94894.97;4971890;28;20256;-68
2022/06/30 00:56:34;;;;;;;7.40;6.70;;;;;;;21.69;56.72;94892.00;4976681;28;20313;-68
2022/06/30 00:59:03;;;;;;;7.07;6.40;;;;;;;21.54;57.42;94895.03;4964268;28;20208;-68
2022/06/30 01:01:30;;;;;;;7.45;6.60;;;;;;;21.88;56.44;94898.94;4962127;28;20216;-68
2022/06/30 01:03:56;;;;;;;9.60;7.15;;;;;;;21.94;56.09;94891.88;4965906;28;20232;-68
2022/06/30 01:06:22;;;;;;;10.20;7.32;;;;;;;21.65;57.29;94893.47;4971385;28;20620;-68
2022/06/30 01:08:49;;;;;;;6.90;6.20;;;;;;;21.41;58.36;94896.00;4965965;28;20232;-69
2022/06/30 01:14:01;;;;;;;9.93;6.43;;;;;;;21.33;58.62;94880.19;4964680;28;20295;-69
2022/06/30 01:16:26;;;;;;;8.77;6.55;;;;;;;21.40;58.57;94882.84;4972364;28;20221;-69
2022/06/30 01:18:52;;;;;;;9.02;6.35;;;;;;;21.51;58.34;94882.09;4965160;28;20342;-68
2022/06/30 01:21:17;;;;;;;8.75;6.80;;;;;;;21.63;58.00;94885.66;4964167;28;20220;-69
2022/06/30 01:23:43;;;;;;;8.60;6.00;;;;;;;21.78;57.29;94894.16;4968020;28;20227;-68
2022/06/30 01:26:08;;;;;;;7.47;6.78;;;;;;;21.59;57.69;94892.50;4966183;28;20224;-69
2022/06/30 01:28:34;;;;;;;9.40;6.88;;;;;;;21.54;58.03;94889.66;4985721;28;20262;-69
2022/06/30 01:30:59;;;;;;;7.90;7.10;;;;;;;21.45;58.64;94886.47;4960555;28;20228;-69
2022/06/30 01:33:25;;;;;;;8.25;6.50;;;;;;;21.51;58.18;94884.78;4964373;28;20699;-69
2022/06/30 01:35:51;;;;;;;7.15;6.47;;;;;;;21.45;58.23;94875.78;4964502;28;20310;-69
2022/06/30 01:38:19;;;;;;;10.60;7.45;;;;;;;21.30;58.91;94880.63;4975427;28;20300;-69
2022/06/30 01:40:45;;;;;;;8.82;7.15;;;;;;;21.39;58.81;94883.91;4970503;28;20224;-69
2022/06/30 01:43:11;;;;;;;8.70;7.30;;;;;;;21.30;58.77;94876.13;4970896;28;20217;-69
2022/06/30 01:45:38;;;;;;;10.38;7.10;;;;;;;21.31;59.17;94884.97;4969598;28;20331;-69
2022/06/30 01:48:03;;;;;;;7.85;7.00;;;;;;;21.22;59.39;94883.59;4967657;28;20232;-69
2022/06/30 01:50:30;;;;;;;9.40;6.70;;;;;;;21.19;59.48;94881.38;4963524;28;20228;-69
2022/06/30 01:52:57;;;;;;;9.55;7.47;;;;;;;21.26;59.07;94871.44;4970617;28;20220;-68
2022/06/30 01:55:23;;;;;;;9.80;7.38;;;;;;;21.07;59.97;94876.75;4970535;28;20617;-68
2022/06/30 01:57:49;;;;;;;13.70;6.60;;;;;;;20.96;60.66;94888.19;4966426;28;20521;-69
2022/06/30 02:00:20;;;;;;;7.70;6.70;;;;;;;21.14;59.83;94882.03;4969066;28;20243;-68
2022/06/30 02:02:48;;;;;;;7.75;7.00;;;;;;;21.21;59.49;94879.31;4971185;28;20232;-69
2022/06/30 02:05:14;;;;;;;7.43;6.53;;;;;;;20.91;60.72;94875.47;4971612;28;20225;-69
2022/06/30 02:07:40;;;;;;;8.82;6.97;;;;;;;20.98;60.63;94875.38;4965162;28;20216;-68
2022/06/30 02:10:08;;;;;;;9.70;7.53;;;;;;;20.98;60.44;94886.09;4968082;28;20227;-69
2022/06/30 02:12:46;;;;;;;9.35;6.80;;;;;;;20.72;61.28;94897.03;4970743;28;20219;-68
2022/06/30 02:15:18;;;;;;;8.88;7.28;;;;;;;20.88;60.68;94888.47;4970408;28;20251;-68
2022/06/30 02:17:46;;;;;;;10.15;7.32;;;;;;;20.95;60.51;94878.50;4962430;28;20296;-68
2022/06/30 02:20:13;;;;;;;9.20;8.13;;;;;;;21.13;59.57;94878.53;4970211;28;20726;-69
2022/06/30 02:22:40;;;;;;;9.45;7.80;;;;;;;20.93;59.96;94884.09;4973530;28;20251;-69
2022/06/30 02:25:06;;;;;;;13.05;8.90;;;;;;;20.88;59.90;94885.78;4968008;28;20583;-68
2022/06/30 02:27:32;;;;;;;12.43;8.93;;;;;;;20.87;60.20;94886.81;4968163;28;20480;-69
2022/06/30 02:29:58;;;;;;;9.30;8.20;;;;;;;20.97;59.92;94894.34;4964991;28;20675;-68
2022/06/30 02:32:23;;;;;;;11.60;8.63;;;;;;;20.83;60.55;94888.28;4972766;28;20228;-69
2022/06/30 02:34:50;;;;;;;10.48;8.38;;;;;;;20.79;60.73;94901.25;4971254;28;20351;-69
2022/06/30 02:37:15;;;;;;;10.80;7.93;;;;;;;20.75;61.17;94897.41;4963920;28;20238;-68
2022/06/30 02:39:41;;;;;;;9.20;7.70;;;;;;;20.65;61.75;94897.88;4961105;28;20299;-68
2022/06/30 02:42:07;;;;;;;12.45;8.38;;;;;;;20.54;62.20;94893.22;4968744;28;20274;-68
2022/06/30 02:44:32;;;;;;;9.18;7.65;;;;;;;20.59;61.80;94893.41;4973233;28;20307;-68
2022/06/30 02:46:58;;;;;;;10.63;7.75;;;;;;;20.61;61.64;94893.16;4958135;28;20208;-68
2022/06/30 02:49:23;;;;;;;11.25;7.72;;;;;;;20.62;61.59;94897.50;4974399;28;20213;-68
2022/06/30 02:51:49;;;;;;;9.02;7.55;;;;;;;20.67;61.51;94906.50;4974453;28;20217;-68
2022/06/30 02:54:16;;;;;;;11.20;7.82;;;;;;;20.72;61.15;94902.38;4966511;28;20227;-68
2022/06/30 02:56:42;;;;;;;8.25;7.45;;;;;;;20.79;60.69;94900.44;4968360;28;20601;-69
2022/06/30 02:59:08;;;;;;;9.85;7.10;;;;;;;20.64;61.00;94903.44;4963413;28;20231;-69
2022/06/30 03:01:34;;;;;;;7.60;6.88;;;;;;;20.56;61.56;94909.06;4975079;28;20219;-68
2022/06/30 03:04:01;;;;;;;9.15;7.72;;;;;;;20.55;61.15;94902.88;4958855;28;20330;-68
2022/06/30 03:06:28;;;;;;;7.97;6.65;;;;;;;20.63;60.79;94905.28;4974018;28;20227;-69
2022/06/30 03:08:54;;;;;;;10.57;7.15;;;;;;;20.72;60.55;94903.19;4964051;28;20682;-68
2022/06/30 03:11:20;;;;;;;11.48;6.90;;;;;;;20.66;60.46;94904.88;4965377;28;20362;-69
2022/06/30 03:13:46;;;;;;;12.25;7.30;;;;;;;20.61;60.43;94896.69;4975650;28;20212;-68
2022/06/30 03:16:12;;;;;;;9.30;7.32;;;;;;;20.72;59.93;94899.69;4971284;28;20246;-68
2022/06/30 03:18:38;;;;;;;8.90;7.15;;;;;;;20.79;60.05;94898.56;4975988;28;20770;-68
2022/06/30 03:21:04;;;;;;;13.38;7.13;;;;;;;20.76;59.84;94896.34;4963390;28;20617;-68
2022/06/30 03:23:29;;;;;;;10.38;7.05;;;;;;;20.77;59.62;94892.66;4962605;28;20219;-68
2022/06/30 03:25:55;;;;;;;10.35;7.15;;;;;;;20.76;59.58;94899.03;4966086;28;20722;-68
2022/06/30 03:28:20;;;;;;;8.18;6.55;;;;;;;20.56;60.82;94891.16;4958669;28;20641;-68
2022/06/30 03:30:47;;;;;;;8.60;6.97;;;;;;;20.60;60.51;94895.03;4958847;28;20236;-68
2022/06/30 03:33:13;;;;;;;9.82;7.22;;;;;;;20.51;60.62;94901.66;4967353;28;20225;-68
2022/06/30 03:35:43;;;;;;;11.45;6.60;;;;;;;20.41;61.24;94899.44;4961225;28;20259;-68
2022/06/30 03:38:09;;;;;;;14.18;7.38;;;;;;;20.37;61.49;94902.75;4961945;28;20253;-68
2022/06/30 03:40:34;;;;;;;9.20;6.68;;;;;;;20.35;62.10;94904.84;4978802;28;20205;-69
2022/06/30 03:43:01;;;;;;;14.13;7.57;;;;;;;20.33;61.61;94899.69;4961210;28;20247;-69
2022/06/30 03:45:27;;;;;;;12.10;7.65;;;;;;;20.32;61.67;94908.75;4966489;28;20223;-69
2022/06/30 03:47:53;;;;;;;11.82;7.50;;;;;;;20.58;60.12;94907.81;4966250;28;20216;-70
2022/06/30 03:50:18;;;;;;;11.30;6.60;;;;;;;20.72;59.32;94907.72;4961362;28;20604;-69
2022/06/30 03:52:44;;;;;;;8.32;6.88;;;;;;;20.78;59.01;94901.50;4966549;28;20200;-69
2022/06/30 03:55:10;;;;;;;10.38;6.82;;;;;;;20.79;58.88;94903.09;4964730;28;20204;-70
2022/06/30 03:57:36;;;;;;;12.05;6.82;;;;;;;20.76;58.62;94908.91;4962583;28;20235;-70
2022/06/30 04:00:02;;;;;;;10.10;7.03;;;;;;;20.81;58.19;94901.03;4967146;28;20232;-70
2022/06/30 04:02:28;;;;;;;8.23;6.60;;;;;;;20.86;58.24;94903.88;4957418;28;20711;-70
2022/06/30 04:04:53;;;;;;;9.02;7.50;;;;;;;20.69;58.94;94901.75;4966462;28;20211;-70
2022/06/30 04:07:19;;;;;;;10.48;7.72;;;;;;;20.75;59.11;94909.94;4981213;28;20209;-70
2022/06/30 04:09:45;;;;;;;9.00;7.88;;;;;;;20.87;58.76;94905.50;4969801;28;20228;-71
2022/06/30 04:12:10;;;;;;;9.20;8.07;;;;;;;20.82;59.05;94905.34;4967597;28;20228;-70
2022/06/30 04:14:36;;;;;;;13.90;8.18;;;;;;;20.92;58.74;94905.69;4963969;28;20216;-70
2022/06/30 04:17:01;;;;;;;13.88;8.73;;;;;;;21.08;58.40;94907.78;4963750;28;20230;-70
2022/06/30 04:19:27;;;;;;;12.88;8.13;;;;;;;21.07;58.13;94906.16;4961758;28;20200;-70
2022/06/30 04:21:52;;;;;;;9.15;8.15;;;;;;;21.12;57.62;94905.50;4958985;28;20233;-70
2022/06/30 04:24:18;;;;;;;10.50;8.38;;;;;;;21.33;57.53;94909.59;4966681;28;20258;-70
2022/06/30 04:26:43;;;;;;;10.23;8.38;;;;;;;21.41;57.12;94908.53;4965345;28;20315;-67
2022/06/30 04:29:09;;;;;;;8.32;7.55;;;;;;;21.36;56.97;94903.84;4974621;28;20591;-68
2022/06/30 04:34:18;;;;;;;8.60;7.80;;;;;;;21.33;57.34;94901.59;4964669;28;20701;-70
2022/06/30 04:36:44;;;;;;;11.07;7.20;;;;;;;21.30;57.51;94902.03;4968160;28;20219;-70
2022/06/30 04:39:09;;;;;;;7.75;7.05;;;;;;;21.36;57.28;94907.34;4967313;28;20216;-67
2022/06/30 04:41:36;;;;;;;6.72;6.13;;;;;;;21.48;55.71;94912.78;4966216;28;20232;-67
2022/06/30 04:44:02;;;;;;;6.57;5.88;;;;;;;21.55;54.80;94905.50;4969170;28;20236;-67
2022/06/30 04:46:27;;;;;;;9.45;6.43;;;;;;;21.54;54.68;94909.25;4960946;28;20261;-66
2022/06/30 04:48:53;;;;;;;7.25;6.10;;;;;;;21.52;55.30;94913.19;4966901;28;20218;-69
2022/06/30 04:51:19;;;;;;;10.85;5.93;;;;;;;21.63;54.56;94911.63;4967221;28;20663;-68
2022/06/30 04:53:44;;;;;;;11.57;5.90;;;;;;;21.68;54.19;94911.75;4963111;28;20306;-67
2022/06/30 04:56:10;;;;;;;6.95;5.78;;;;;;;21.79;53.59;94913.69;4968245;28;20238;-70
2022/06/30 04:58:36;;;;;;;12.95;6.40;;;;;;;21.78;53.07;94909.38;4967652;28;20356;-66
2022/06/30 05:01:02;;;;;;;7.95;5.00;;;;;;;21.79;52.87;94913.69;4971354;28;20279;-69
2022/06/30 05:03:29;;;;;;;6.57;5.10;;;;;;;21.72;53.25;94919.09;4961780;28;20236;-68
2022/06/30 05:05:54;;;;;;;8.57;5.35;;;;;;;21.77;53.13;94908.56;4962638;28;20232;-67
2022/06/30 05:08:20;;;;;;;5.55;5.03;;;;;;;21.78;53.09;94904.00;4967600;28;20306;-68
2022/06/30 05:10:46;;;;;;;6.70;5.55;;;;;;;21.82;52.56;94905.22;4964208;28;20238;-69
2022/06/30 05:13:11;;;;;;;9.60;6.05;;;;;;;21.88;52.78;94922.22;4977215;28;20273;-69
2022/06/30 05:15:37;;;;;;;7.55;6.30;;;;;;;21.99;52.48;94919.59;4972215;28;20224;-69
2022/06/30 05:18:02;;;;;;;8.27;6.40;;;;;;;21.94;52.80;94916.78;4971783;28;20391;-70
2022/06/30 05:20:28;;;;;;;12.02;6.30;;;;;;;21.86;53.03;94917.09;4951649;28;20262;-68
2022/06/30 05:22:53;;;;;;;7.30;5.40;;;;;;;21.98;52.64;94927.88;4953827;28;20224;-67
2022/06/30 05:28:03;;;;;;;6.63;5.70;;;;;;;21.93;52.85;94925.06;4960542;28;20292;-67
2022/06/30 05:30:28;;;;;;;6.03;5.53;;;;;;;21.87;53.14;94918.75;4963238;28;20224;-67
2022/06/30 05:32:54;;;;;;;10.68;6.18;;;;;;;21.97;52.95;94929.75;4969315;28;20237;-67
2022/06/30 05:35:20;;;;;;;9.82;6.22;;;;;;;22.01;52.61;94930.91;4972087;28;20216;-68
2022/06/30 05:37:45;;;;;;;8.30;6.32;;;;;;;22.10;52.38;94925.25;4963859;28;20277;-68
2022/06/30 05:40:11;;;;;;;7.53;6.43;;;;;;;22.11;52.49;94932.25;4972138;28;20290;-68
2022/06/30 05:42:37;;;;;;;7.47;6.57;;;;;;;22.13;52.39;94935.50;4957540;28;20228;-67
2022/06/30 05:45:04;;;;;;;6.28;5.75;;;;;;;22.14;52.34;94924.56;4968282;28;20238;-68
2022/06/30 05:47:30;;;;;;;10.40;6.57;;;;;;;22.28;52.66;94933.28;4962754;28;20301;-67
2022/06/30 05:49:56;;;;;;;6.95;6.00;;;;;;;22.22;53.28;94935.00;4965225;28;20204;-70
2022/06/30 05:52:22;;;;;;;6.82;6.20;;;;;;;22.26;52.63;94940.72;4976806;28;20211;-67
2022/06/30 05:54:48;;;;;;;6.82;6.13;;;;;;;22.18;52.70;94933.81;4978654;28;20223;-67
2022/06/30 05:57:13;;;;;;;8.48;6.20;;;;;;;22.41;52.48;94941.13;4979038;28;20220;-67
2022/06/30 05:59:38;;;;;;;9.18;6.07;;;;;;;22.65;51.26;94943.91;4991961;28;20560;-68
2022/06/30 06:02:04;;;;;;;18.73;7.38;;;;;;;22.55;51.09;94949.00;4968342;28;20320;-69
2022/06/30 06:04:30;;;;;;;11.93;6.60;;;;;;;22.58;51.43;94952.03;4962844;28;20207;-66
2022/06/30 06:06:55;;;;;;;8.25;7.45;;;;;;;22.46;52.67;94951.19;4955602;28;20581;-67
2022/06/30 06:09:21;;;;;;;8.57;6.10;;;;;;;22.37;53.24;94956.06;4949730;28;20215;-67
2022/06/30 06:11:47;;;;;;;6.93;6.22;;;;;;;22.38;52.93;94955.00;4952776;28;20221;-67
2022/06/30 06:14:13;;;;;;;10.48;6.68;;;;;;;22.40;52.26;94950.22;4956159;28;20562;-67
2022/06/30 06:16:38;;;;;;;7.82;7.00;;;;;;;22.43;53.27;94951.66;4960607;28;20833;-66
2022/06/30 06:19:04;;;;;;;9.65;7.00;;;;;;;22.66;50.95;94950.88;4956297;28;20282;-66
2022/06/30 06:21:29;;;;;;;10.85;7.65;;;;;;;22.65;51.44;94954.63;4958255;28;20307;-66
2022/06/30 06:23:55;;;;;;;7.72;6.93;;;;;;;22.74;51.17;94953.25;4957430;28;20239;-66
2022/06/30 06:26:21;;;;;;;8.65;7.10;;;;;;;22.76;51.64;94947.66;4966413;28;20216;-66
2022/06/30 06:29:05;;;;;;;8.98;7.40;;;;;;;22.73;52.53;94946.25;4962450;28;20307;-66
2022/06/30 06:31:31;;;;;;;8.07;6.38;;;;;;;22.81;52.14;94947.78;4966947;28;20213;-66
2022/06/30 06:33:57;;;;;;;9.93;7.25;;;;;;;22.76;52.20;94944.97;4958046;28;20228;-66
2022/06/30 06:36:22;;;;;;;10.63;8.07;;;;;;;22.86;52.27;94946.06;4957885;28;20226;-66
2022/06/30 06:38:48;;;;;;;8.65;7.82;;;;;;;22.93;51.87;94948.63;4949640;28;20216;-66
2022/06/30 06:41:14;;;;;;;9.93;8.30;;;;;;;22.90;52.91;94938.34;4957090;28;20232;-66
2022/06/30 06:43:40;;;;;;;10.77;7.72;;;;;;;23.05;52.35;94941.47;4959918;28;20339;-66
2022/06/30 06:46:05;;;;;;;8.85;7.82;;;;;;;23.10;53.59;94930.84;4965956;28;20931;-66
2022/06/30 06:48:31;;;;;;;9.63;7.70;;;;;;;23.18;52.19;94932.38;4959798;28;20235;-66
2022/06/30 06:50:56;;;;;;;8.13;7.30;;;;;;;23.24;51.16;94933.31;4964408;28;20224;-66
2022/06/30 06:53:22;;;;;;;9.40;7.07;;;;;;;23.32;50.39;94938.31;4967284;28;20302;-66
2022/06/30 06:55:47;;;;;;;8.48;7.25;;;;;;;23.18;50.91;94932.38;4963730;28;20213;-65
2022/06/30 06:58:13;;;;;;;8.73;7.68;;;;;;;23.23;50.85;94927.13;4966353;28;20208;-66
2022/06/30 07:00:38;;;;;;;9.63;6.57;;;;;;;23.34;51.33;94931.69;4967193;28;20235;-66
2022/06/30 07:03:04;;;;;;;9.00;6.65;;;;;;;23.22;49.36;94933.53;4969230;28;20228;-66
2022/06/30 07:05:29;;;;;;;8.20;7.38;;;;;;;23.36;50.78;94933.31;4962911;28;20273;-65
2022/06/30 07:07:59;;;;;;;7.25;6.50;;;;;;;23.44;49.93;94930.28;4958637;28;20228;-68
2022/06/30 07:10:25;;;;;;;8.27;6.40;;;;;;;23.56;49.52;94928.41;4962790;28;20209;-66
2022/06/30 07:12:51;;;;;;;7.97;7.18;;;;;;;23.36;51.07;94926.06;4959148;28;20216;-66
2022/06/30 07:15:17;;;;;;;11.38;7.05;;;;;;;23.56;50.41;94920.34;4963176;28;20220;-67
2022/06/30 07:17:43;;;;;;;11.23;7.07;;;;;;;23.55;50.52;94918.72;4968805;28;20288;-66
2022/06/30 07:20:09;;;;;;;9.73;6.85;;;;;;;23.61;51.09;94928.53;4967055;28;20233;-66
2022/06/30 07:22:34;;;;;;;8.32;7.20;;;;;;;23.71;50.00;94920.72;4961422;28;20425;-67
2022/06/30 07:25:01;;;;;;;7.47;6.78;;;;;;;23.61;49.93;94923.16;4954328;28;20641;-67
2022/06/30 07:27:26;;;;;;;10.82;7.35;;;;;;;23.67;50.37;94919.50;4956985;28;20657;-67
2022/06/30 07:29:52;;;;;;;8.68;7.57;;;;;;;23.80;51.97;94920.34;4962014;28;20382;-67
2022/06/30 07:32:17;;;;;;;10.20;7.45;;;;;;;23.77;50.75;94924.31;4962105;28;20280;-67
2022/06/30 07:34:42;;;;;;;10.80;7.30;;;;;;;23.88;50.02;94920.00;4953999;28;20675;-67
2022/06/30 07:37:08;;;;;;;10.90;7.78;;;;;;;23.90;51.13;94928.63;4953433;28;21046;-67
2022/06/30 07:39:33;;;;;;;8.65;7.82;;;;;;;23.98;51.56;94921.00;4964838;28;20979;-67
2022/06/30 07:41:59;;;;;;;11.63;8.15;;;;;;;24.16;49.51;94921.88;4961127;28;20310;-67
2022/06/30 07:44:25;;;;;;;12.63;6.95;;;;;;;24.17;51.25;94918.16;4964416;28;20215;-67
2022/06/30 07:46:51;;;;;;;15.02;9.05;;;;;;;24.19;52.05;94918.72;4963821;28;20591;-67
2022/06/30 07:49:16;;;;;;;10.23;7.53;;;;;;;24.16;51.34;94920.03;4966167;28;20231;-67
2022/06/30 07:51:42;;;;;;;16.98;9.13;;;;;;;24.35;50.74;94917.13;4961725;28;20236;-68
2022/06/30 07:54:07;;;;;;;14.25;9.30;;;;;;;24.37;51.05;94917.72;4964999;28;20227;-69
2022/06/30 07:56:32;;;;;;;9.77;7.38;;;;;;;24.51;50.79;94913.72;4966339;28;20219;-68
2022/06/30 07:58:58;;;;;;;9.63;7.75;;;;;;;24.61;50.65;94913.88;4959090;28;20218;-69
2022/06/30 08:01:24;;;;;;;9.73;8.00;;;;;;;24.69;51.32;94917.25;4964941;28;20573;-69
2022/06/30 08:03:49;;;;;;;10.48;7.68;;;;;;;24.74;50.60;94917.34;4965413;28;20235;-69
2022/06/30 08:06:15;;;;;;;9.70;7.70;;;;;;;24.81;51.48;94918.00;4976000;28;20715;-69
2022/06/30 08:08:42;;;;;;;8.82;7.20;;;;;;;24.93;51.63;94915.22;4962117;28;20308;-69
2022/06/30 08:11:08;;;;;;;10.27;7.20;;;;;;;24.99;49.00;94914.25;4980117;28;20678;-69
2022/06/30 08:13:35;;;;;;;10.07;7.32;;;;;;;24.89;46.95;94914.91;4963671;28;20251;-69
2022/06/30 08:16:00;;;;;;;9.80;7.72;;;;;;;24.87;46.81;94912.47;4961663;28;20305;-69
2022/06/30 08:18:26;;;;;;;11.60;7.25;;;;;;;24.89;48.20;94909.53;4959605;28;20323;-69
2022/06/30 08:20:51;;;;;;;9.05;7.25;;;;;;;24.95;47.38;94905.06;4963211;28;20230;-68
2022/06/30 08:23:17;;;;;;;10.60;7.20;;;;;;;25.03;46.85;94905.47;4962949;28;20259;-69
2022/06/30 08:25:42;;;;;;;7.75;6.95;;;;;;;25.09;46.83;94909.03;4955495;28;20208;-68
2022/06/30 08:28:08;;;;;;;9.93;6.93;;;;;;;25.09;45.97;94907.16;4963299;28;20208;-68
2022/06/30 08:30:34;;;;;;;11.70;6.93;;;;;;;25.14;45.45;94916.38;4963228;28;20228;-68
2022/06/30 08:33:00;;;;;;;9.15;6.70;;;;;;;25.08;46.76;94908.22;4959630;28;20780;-68
2022/06/30 08:35:25;;;;;;;8.15;7.00;;;;;;;25.20;44.20;94915.44;4953031;28;20256;-68
2022/06/30 08:37:50;;;;;;;11.50;7.20;;;;;;;25.05;44.43;94908.72;4951502;28;20557;-67
2022/06/30 08:43:00;;;;;;;9.25;7.50;;;;;;;25.22;43.65;94916.00;4962179;28;20254;-66
2022/06/30 08:45:29;;;;;;;12.20;7.18;;;;;;;25.24;43.86;94909.31;4967476;28;20319;-68
2022/06/30 08:47:55;;;;;;;10.20;6.72;;;;;;;25.26;43.94;94909.06;4969192;28;20667;-67
2022/06/30 08:50:21;;;;;;;10.95;7.53;;;;;;;25.28;45.75;94913.13;4967277;28;20307;-67
2022/06/30 08:52:52;;;;;;;8.35;7.00;;;;;;;25.36;45.04;94913.78;4963832;28;20200;-68
2022/06/30 08:55:20;;;;;;;11.02;8.05;;;;;;;25.44;43.45;94910.66;4956033;28;20203;-68
2022/06/30 08:57:47;;;;;;;10.13;7.20;;;;;;;25.42;43.04;94913.63;4948598;28;20323;-67
2022/06/30 09:00:15;;;;;;;7.78;6.38;;;;;;;25.49;43.27;94905.34;4960000;28;20220;-67
2022/06/30 09:02:41;;;;;;;10.43;7.10;;;;;;;25.51;42.98;94901.34;4966239;28;20599;-68
2022/06/30 09:05:07;;;;;;;10.15;7.28;;;;;;;25.66;42.38;94906.16;4968253;28;20223;-69
2022/06/30 09:07:34;;;;;;;11.52;6.70;;;;;;;25.69;42.71;94900.28;4967433;28;20228;-69
2022/06/30 09:10:00;;;;;;;9.88;6.88;;;;;;;25.77;44.39;94904.41;4963006;28;20247;-70
2022/06/30 09:12:26;;;;;;;7.70;6.25;;;;;;;25.86;42.51;94897.53;4969086;28;20630;-70
2022/06/30 09:14:53;;;;;;;10.48;6.88;;;;;;;25.92;42.00;94898.41;4965635;28;20230;-70
2022/06/30 09:17:23;;;;;;;8.18;7.30;;;;;;;25.84;43.83;94896.16;4964800;28;20228;-69
2022/06/30 09:19:59;;;;;;;10.55;6.63;;;;;;;25.87;43.67;94901.03;4956919;28;20211;-71
2022/06/30 09:22:30;;;;;;;10.32;7.03;;;;;;;25.96;43.16;94897.69;4958100;28;20672;-68
2022/06/30 09:24:59;;;;;;;9.32;6.88;;;;;;;26.03;41.67;94888.59;4955472;28;20322;-67
2022/06/30 09:27:34;;;;;;;11.38;7.78;;;;;;;25.96;42.16;94888.78;4955352;28;20663;-68
2022/06/30 09:30:09;;;;;;;8.30;6.10;;;;;;;25.99;43.69;94890.97;4963959;28;20235;-70
2022/06/30 09:32:52;;;;;;;9.20;6.43;;;;;;;26.10;43.36;94886.50;4960343;28;20761;-69
2022/06/30 09:35:23;;;;;;;9.60;6.32;;;;;;;26.24;43.92;94886.94;4963534;28;20251;-69
2022/06/30 09:38:12;;;;;;;11.05;5.40;;;;;;;26.37;41.31;94881.97;4960521;28;20239;-69
2022/06/30 09:41:00;;;;;;;5.80;5.30;;;;;;;26.37;41.09;94873.88;4960840;28;20933;-69
2022/06/30 09:43:35;;;;;;;6.47;5.53;;;;;;;26.46;44.28;94885.00;4963115;28;20553;-69
2022/06/30 09:46:01;;;;;;;6.20;5.38;;;;;;;26.57;41.30;94883.25;4966876;28;20256;-69
2022/06/30 09:48:28;;;;;;;6.07;4.82;;;;;;;26.74;41.03;94875.88;4965152;28;20642;-69
2022/06/30 09:50:58;;;;;;;10.45;5.32;;;;;;;26.89;40.91;94883.28;4962781;28;20247;-69
2022/06/30 09:53:23;;;;;;;8.32;4.82;;;;;;;26.93;38.88;94886.28;4960065;28;20233;-69
2022/06/30 09:55:49;;;;;;;6.65;5.03;;;;;;;27.00;37.46;94878.78;4963508;28;20200;-69
2022/06/30 09:58:30;;;;;;;6.90;4.97;;;;;;;27.06;38.47;94873.16;4966145;28;20517;-70
2022/06/30 10:00:56;;;;;;;5.97;5.22;;;;;;;27.26;38.98;94879.81;4962882;28;20235;-68
2022/06/30 10:03:22;;;;;;;9.88;5.80;;;;;;;27.45;38.64;94872.94;4978848;28;20224;-69
2022/06/30 10:05:49;;;;;;;5.55;4.85;;;;;;;27.64;38.49;94873.31;4968456;28;20297;-69
2022/06/30 10:08:16;;;;;;;6.78;5.32;;;;;;;27.84;37.60;94869.09;4965404;28;20303;-69
2022/06/30 10:10:43;;;;;;;7.78;5.40;;;;;;;27.91;37.16;94873.19;4964137;28;20631;-69
2022/06/30 10:13:17;;;;;;;6.30;4.55;;;;;;;27.92;36.85;94874.00;4982417;28;20209;-69
2022/06/30 10:15:56;;;;;;;6.72;4.57;;;;;;;27.91;36.79;94870.47;4963601;28;20219;-68
2022/06/30 10:18:27;;;;;;;5.57;4.55;;;;;;;28.11;36.75;94863.53;4963691;28;20322;-69
2022/06/30 10:20:54;;;;;;;9.05;4.18;;;;;;;28.31;35.50;94860.06;4960262;28;20223;-71
2022/06/30 10:23:21;;;;;;;7.43;4.15;;;;;;;28.40;35.13;94863.88;4965912;28;20231;-70
2022/06/30 10:25:49;;;;;;;5.75;3.80;;;;;;;28.62;34.66;94857.44;4968674;28;20967;-69
2022/06/30 10:28:19;;;;;;;5.72;5.03;;;;;;;28.75;34.73;94870.44;4963460;28;20215;-70
2022/06/30 10:30:57;;;;;;;6.25;3.88;;;;;;;28.79;33.42;94860.72;4971231;28;20235;-69
2022/06/30 10:33:36;;;;;;;5.03;4.05;;;;;;;28.74;33.70;94855.31;4966046;28;20239;-70
2022/06/30 10:36:22;;;;;;;5.25;4.45;;;;;;;28.80;32.88;94854.22;4955016;28;20236;-70
2022/06/30 10:39:19;;;;;;;7.07;4.28;;;;;;;29.07;33.09;94845.03;4957543;28;20243;-70
2022/06/30 10:41:46;;;;;;;7.07;3.72;;;;;;;29.28;32.48;94848.53;4920947;29;20245;-69
2022/06/30 10:44:14;;;;;;;4.57;4.07;;;;;;;29.39;31.90;94842.00;4914978;29;20229;-70
2022/06/30 10:46:45;;;;;;;4.00;3.60;;;;;;;29.40;31.66;94839.03;4927306;29;20312;-70
2022/06/30 10:49:12;;;;;;;7.82;4.00;;;;;;;29.45;32.36;94833.56;4909221;29;20230;-69
2022/06/30 10:51:39;;;;;;;6.00;4.03;;;;;;;29.58;33.38;94839.53;4911170;29;20232;-68
2022/06/30 10:54:06;;;;;;;10.15;4.35;;;;;;;29.75;33.24;94840.06;4923317;29;20391;-70
2022/06/30 10:57:04;;;;;;;9.10;3.75;;;;;;;29.78;32.20;94833.25;4908563;29;20263;-69
2022/06/30 10:59:36;;;;;;;4.75;3.80;;;;;;;29.82;30.48;94829.69;4850723;29;20228;-69
2022/06/30 11:02:07;;;;;;;3.80;3.40;;;;;;;29.94;31.07;94823.13;4849452;29;20324;-66
2022/06/30 11:04:34;;;;;;;5.07;3.30;;;;;;;29.88;30.23;94828.63;4857732;29;20278;-65
2022/06/30 11:07:06;;;;;;;3.60;3.20;;;;;;;30.13;30.59;94820.63;4871145;29;20292;-68
2022/06/30 11:09:44;;;;;;;4.55;3.80;;;;;;;30.23;30.11;94821.41;4861629;29;20302;-68
2022/06/30 11:12:10;;;;;;;5.35;4.18;;;;;;;30.27;29.39;94819.75;4866714;29;20243;-65
2022/06/30 11:14:35;;;;;;;5.70;3.97;;;;;;;30.36;29.79;94805.59;4867511;29;20330;-66
2022/06/30 11:17:16;;;;;;;3.70;3.40;;;;;;;30.43;29.86;94806.09;4855654;29;20253;-67
2022/06/30 11:19:41;;;;;;;3.97;3.60;;;;;;;30.57;29.60;94806.28;4885688;29;20242;-65
2022/06/30 11:22:08;;;;;;;5.03;3.40;;;;;;;30.65;30.01;94803.75;4930615;29;20214;-65
2022/06/30 11:24:38;;;;;;;5.78;3.63;;;;;;;30.76;31.73;94801.75;4928495;29;20324;-65
2022/06/30 11:27:18;;;;;;;5.47;3.17;;;;;;;30.87;29.06;94799.81;4910503;29;20248;-65
2022/06/30 11:29:46;;;;;;;3.80;3.50;;;;;;;30.95;28.99;94802.75;4925873;29;20252;-65
2022/06/30 11:32:12;;;;;;;3.13;2.90;;;;;;;31.07;29.51;94801.53;4913257;29;20312;-68
2022/06/30 11:34:40;;;;;;;3.45;3.20;;;;;;;31.16;29.50;94803.34;4924208;28;20220;-68
2022/06/30 11:37:07;;;;;;;4.43;2.95;;;;;;;31.10;28.43;94799.06;4967128;28;20224;-67
2022/06/30 11:39:33;;;;;;;3.85;3.13;;;;;;;31.03;28.22;94795.84;4967803;28;20220;-68
2022/06/30 11:42:06;;;;;;;3.78;2.92;;;;;;;31.14;28.63;94788.41;4963996;28;20243;-67